Amsterdam, Missouri
Current Conditions -  °F | °C
As of 11:58 PM on Wednesday 17 Dec 2014 (Local Time) from KOJC Reporting Station
Light Snow Light Snow  
Wind Chill: 28°   Ceiling: 1400
Heat Index: 28°   Visibility: 0.75mi
Dew Point: 27°   Wind: 3mph
Humidity: 96%   Direction: 100°E
Pressure: 30.24"   Gusts: NA
Location:  38.35°N, 94.59°W
Report Text: KOJC 180558Z AUTO 10003KT 3/4SM -SN BR VV014 M02/M03 A3024 RMK AO2 P0001 T10221028
Loading
Personal Weather Stations






























Interactive Weather Map New forecast layout! Learn more

10-Day Weather Forecast

Advertisements
Track Severe Weather on mobile